»·PEaware :: SWA3109 KONT-KLAS

SWA3109 :: KONT-KLAS

FLIGHT INFORMATION

Flight Status: Arrived
Operator:
Southwest Airlines
More flights by this operator :: More flights under this callsign
Pilot: Drew L. (13237)
Aircraft: BOEING 737-800
(B738)
More flights by this aircraft type
Origin: KONT Ontario Intl
United States
Destination: KLAS McCarran Intl
United States
More flights between these airports :: More routes between these airports
Route: +SNSHN3 MISEN KEPEC6
File this flight plan on PilotEdge
Remarks: PBN / A1B1C1D1S1S2 DOF / 180409 REG / N806SB OPR / SWA PER / C RMK / TCAS SIMBRIEF
Altitude:
(Current/Filed)
25,000ft
Speed:
(Current/Filed)
460kts
Departed: 08-Apr-18 05:33 PM
Arrived: 08-Apr-18 06:11 PM
Distance/Time
Traveled:
171nm/0:37
Distance/Time
To Go:
Arrived

Flight Plot

Page will automatically refresh every two minutes.

Flight plan parsing failed; only flown route is shown


Map Options




Map Legend


Flown Route
Filed Route
Departure Airport
Arrival Airport
Navaid (VOR, NDB)
Fix

Horizontal Profiles

Position Reports

Time Latitude Longitude Heading Altitude Ground
Speed
08-Apr-18 16:59 34.059966 -117.595714 1 950ft 0kts
08-Apr-18 17:00 34.059966 -117.595714 1 950ft 0kts
08-Apr-18 17:01 34.059966 -117.595714 1 950ft 0kts
08-Apr-18 17:02 34.059966 -117.595714 1 950ft 0kts
08-Apr-18 17:03 34.059966 -117.595714 1 950ft 0kts
08-Apr-18 17:04 34.059966 -117.595714 1 950ft 0kts
08-Apr-18 17:05 34.059966 -117.595714 1 950ft 0kts
08-Apr-18 17:06 34.059966 -117.595714 1 950ft 0kts
08-Apr-18 17:07 34.059966 -117.595714 1 950ft 0kts
08-Apr-18 17:08 34.059966 -117.595714 1 950ft 0kts
08-Apr-18 17:09 34.059966 -117.595714 1 950ft 0kts
08-Apr-18 17:10 34.059966 -117.595714 1 950ft 0kts
08-Apr-18 17:11 34.059966 -117.595714 1 950ft 0kts
08-Apr-18 17:12 34.059966 -117.595714 1 950ft 0kts
08-Apr-18 17:13 34.059966 -117.595714 1 950ft 0kts
08-Apr-18 17:14 34.059966 -117.595714 1 950ft 0kts
08-Apr-18 17:15 34.059966 -117.595714 1 950ft 0kts
08-Apr-18 17:16 34.059966 -117.595714 1 950ft 0kts
08-Apr-18 17:17 34.059966 -117.595714 1 950ft 0kts
08-Apr-18 17:18 34.059966 -117.595714 1 950ft 0kts
08-Apr-18 17:19 34.059966 -117.595714 1 950ft 0kts
08-Apr-18 17:20 34.059966 -117.595714 1 950ft 0kts
08-Apr-18 17:21 34.059966 -117.595714 1 950ft 0kts
08-Apr-18 17:22 34.059966 -117.595714 1 950ft 0kts
08-Apr-18 17:23 34.059966 -117.595714 1 950ft 0kts
08-Apr-18 17:24 34.059966 -117.595714 1 950ft 0kts
08-Apr-18 17:25 34.059554 -117.595724 1 951ft 2kts
08-Apr-18 17:26 34.059045 -117.596011 63 950ft 2kts
08-Apr-18 17:27 34.058994 -117.596313 90 950ft 0kts
08-Apr-18 17:28 34.058994 -117.596313 90 950ft 0kts
08-Apr-18 17:29 34.058986 -117.593944 91 950ft 24kts
08-Apr-18 17:30 34.058998 -117.583441 92 950ft 22kts
08-Apr-18 17:31 34.057108 -117.582423 207 950ft 15kts
08-Apr-18 17:32 34.057058 -117.611309 271 1080ft 177kts
08-Apr-18 17:33 34.058290 -117.672241 269 3137ft 231kts
08-Apr-18 17:34 34.068633 -117.753242 286 6443ft 266kts
08-Apr-18 17:35 34.105213 -117.830320 314 9809ft 279kts
08-Apr-18 17:36 34.166892 -117.893942 319 12585ft 314kts
08-Apr-18 17:37 34.236218 -117.960019 334 15662ft 327kts
08-Apr-18 17:38 34.326177 -117.943835 22 18500ft 357kts
08-Apr-18 17:39 34.380103 -117.841427 81 20845ft 401kts
08-Apr-18 17:40 34.387897 -117.704282 83 22954ft 419kts
08-Apr-18 17:41 34.414239 -117.566844 51 24597ft 420kts
08-Apr-18 17:42 34.484185 -117.449877 48 25070ft 450kts
08-Apr-18 17:43 34.557907 -117.327971 49 25055ft 465kts
08-Apr-18 17:44 34.634150 -117.201709 49 25054ft 464kts
08-Apr-18 17:45 34.710250 -117.075751 49 25049ft 466kts
08-Apr-18 17:46 34.787007 -116.948841 49 25020ft 468kts
08-Apr-18 17:47 34.859508 -116.829092 49 25008ft 469kts
08-Apr-18 17:48 34.936172 -116.701380 51 25009ft 465kts
08-Apr-18 17:49 35.007623 -116.574228 51 24979ft 461kts
08-Apr-18 17:50 35.076320 -116.451585 51 24023ft 428kts
08-Apr-18 17:51 35.151040 -116.341640 41 24042ft 423kts
08-Apr-18 17:52 35.232038 -116.240256 41 22230ft 412kts
08-Apr-18 17:53 35.309533 -116.142998 41 20246ft 398kts
08-Apr-18 17:54 35.384949 -116.048063 42 18260ft 385kts
08-Apr-18 17:55 35.458188 -115.955668 42 16262ft 373kts
08-Apr-18 17:56 35.529078 -115.866141 42 14611ft 357kts
08-Apr-18 17:57 35.598232 -115.778848 42 13426ft 357kts
08-Apr-18 17:58 35.666247 -115.692966 42 13053ft 352kts
08-Apr-18 17:59 35.734722 -115.605627 41 13042ft 355kts
08-Apr-18 18:00 35.824225 -115.571778 0 13044ft 344kts
08-Apr-18 18:01 35.902340 -115.518212 62 11630ft 316kts
08-Apr-18 18:02 35.887102 -115.427631 111 10942ft 265kts
08-Apr-18 18:03 35.863792 -115.344782 71 9719ft 255kts
08-Apr-18 18:04 35.899142 -115.274317 51 8518ft 227kts
08-Apr-18 18:05 35.943283 -115.240240 19 6940ft 183kts
08-Apr-18 18:06 35.987773 -115.214744 19 4670ft 164kts
08-Apr-18 18:07 36.024976 -115.195480 21 3298ft 136kts
08-Apr-18 18:08 36.061022 -115.175080 21 2549ft 143kts
08-Apr-18 18:09 36.088875 -115.159086 29 2149ft 47kts
08-Apr-18 18:10 36.090631 -115.156418 103 2148ft 0kts
08-Apr-18 18:11 36.087554 -115.157616 207 2148ft 28kts
08-Apr-18 18:12 36.081342 -115.151976 88 2148ft 33kts
08-Apr-18 18:13 36.081648 -115.148222 65 2149ft 0kts

Navigation Log

Ident Type
Flight plan parsing failed, navigation log unavailable